Yellow Mule RAWS (NWS)

Elevation
9200ft
Aggregated by Synoptic Data
Date/Time Wind Direction Wind Speed knots Wind Gust knots RH % Accumulated Precip Inches Air Temp Fahrenheit
2024-05-29 20:04 SSW 3 5 100 3.81 32
2024-05-29 19:04 WSW 3 19 100 3.81 31
2024-05-29 18:04 SW 11 17 100 3.81 32
2024-05-29 17:04 SW 11 16 100 3.81 32
2024-05-29 16:04 SSW 10 20 100 3.81 32
2024-05-29 15:04 SW 14 19 100 3.81 33
2024-05-29 13:04 SSW 16 22 89 3.76 36
2024-05-29 12:04 SSW 13 22 74 3.75 39
2024-05-29 11:04 SW 14 24 90 3.74 36
2024-05-29 10:04 WSW 11 18 87 3.73 38
2024-05-29 09:04 S 10 24 85 3.73 39
2024-05-29 08:04 WSW 7 15 82 3.73 39
2024-05-29 07:04 SW 5 16 77 3.73 40
2024-05-29 06:04 S 5 7 61 3.73 43
2024-05-29 05:04 SSE 4 15 57 3.73 44
2024-05-29 04:04 SSW 13 21 54 3.73 45
2024-05-29 03:04 S 10 31 57 3.73 44
2024-05-29 02:04 S 17 28 53 3.73 46
2024-05-29 01:04 SSE 12 20 61 3.73 44
2024-05-29 00:04 SSE 12 19 62 3.73 44
2024-05-28 23:04 SSE 12 25 58 3.73 45
2024-05-28 22:04 SW 13 25 66 3.73 43
2024-05-28 21:04 SSE 10 21 38 3.73 50
2024-05-28 20:04 SSE 12 18 35 3.73 51
2024-05-28 19:04 SSE 9 21 32 3.73 54
2024-05-28 18:04 SSE 15 23 28 3.73 55
2024-05-28 17:04 SSE 12 20 25 3.73 57
2024-05-28 16:04 SSE 10 20 24 3.73 57
2024-05-28 15:04 S 10 22 25 3.73 56
2024-05-28 14:04 S 10 19 26 3.73 56
2024-05-28 13:04 SE 8 16 26 3.73 56
2024-05-28 12:04 S 4 15 28 3.73 58
2024-05-28 11:04 SSE 8 17 33 3.73 56
2024-05-28 10:04 ESE 5 10 37 3.73 56
2024-05-28 09:04 SSE 8 11 44 3.73 50
2024-05-28 08:04 SSE 5 8 50 3.73 45
2024-05-28 07:04 SSE 5 6 53 3.73 42
2024-05-28 06:04 S 5 7 61 3.73 38
2024-05-28 05:04 SSE 5 7 57 3.73 40
2024-05-28 04:04 S 3 4 53 3.73 41
2024-05-28 03:04 S 3 5 54 3.73 39
2024-05-28 02:04 S 3 5 49 3.73 41
2024-05-28 01:04 SSE 4 6 54 3.73 40
2024-05-28 00:04 SSE 3 5 52 3.73 41
2024-05-27 23:04 SW 3 4 46 3.73 44
2024-05-27 22:04 W 4 8 45 3.73 45
2024-05-27 21:04 WSW 3 5 45 3.73 45
2024-05-27 20:04 SW 4 12 43 3.73 47